createdAt,value
2018-03-26T00:00:07.264Z,18.10
2018-03-26T00:02:34.740Z,16.63
2018-03-26T00:05:02.181Z,16.20
2018-03-26T00:07:29.631Z,16.87
2018-03-26T00:09:57.086Z,16.33
2018-03-26T00:12:24.532Z,16.30
2018-03-26T00:14:51.981Z,16.93
2018-03-26T00:17:19.435Z,17.33
2018-03-26T00:19:47.651Z,17.60
2018-03-26T00:22:15.105Z,17.30
2018-03-26T00:24:42.552Z,17.13
2018-03-26T00:27:10.036Z,18.73
2018-03-26T00:29:37.464Z,18.60
2018-03-26T00:32:04.918Z,17.77
2018-03-26T00:34:32.379Z,18.10
2018-03-26T00:36:59.833Z,18.60
2018-03-26T00:39:27.280Z,17.80
2018-03-26T00:41:54.733Z,18.10
2018-03-26T00:44:22.185Z,18.10
2018-03-26T00:46:49.639Z,18.03
2018-03-26T00:49:17.096Z,18.03
2018-03-26T00:51:44.550Z,17.53
2018-03-26T00:54:11.996Z,17.43
2018-03-26T00:56:40.211Z,17.00
2018-03-26T00:59:07.661Z,16.90
2018-03-26T01:01:35.112Z,18.00
2018-03-26T01:04:02.557Z,18.13
2018-03-26T01:06:30.005Z,18.10
2018-03-26T01:08:57.474Z,18.00
2018-03-26T01:11:24.925Z,17.87
2018-03-26T01:13:52.373Z,19.17
2018-03-26T01:16:19.855Z,18.77
2018-03-26T01:18:47.300Z,17.93
2018-03-26T01:21:14.750Z,18.47
2018-03-26T01:23:42.205Z,18.07
2018-03-26T01:26:09.646Z,19.13
2018-03-26T01:28:37.865Z,17.83
2018-03-26T01:31:05.316Z,18.57
2018-03-26T01:33:32.768Z,18.60
2018-03-26T01:36:00.216Z,16.70
2018-03-26T01:38:27.672Z,18.20
2018-03-26T01:40:55.125Z,17.27
2018-03-26T01:43:22.577Z,17.40
2018-03-26T01:45:50.032Z,17.63
2018-03-26T01:48:17.486Z,17.87
2018-03-26T01:50:44.935Z,17.97
2018-03-26T01:53:12.376Z,17.63
2018-03-26T01:55:40.592Z,18.60
2018-03-26T01:58:08.047Z,16.57
2018-03-26T02:00:35.496Z,17.47
2018-03-26T02:03:02.964Z,17.77
2018-03-26T02:05:30.412Z,17.30
2018-03-26T02:07:57.860Z,17.07
2018-03-26T02:10:25.305Z,17.73
2018-03-26T02:12:52.756Z,17.23
2018-03-26T02:15:20.208Z,16.83
2018-03-26T02:17:48.421Z,17.27
2018-03-26T02:20:15.869Z,17.20
2018-03-26T02:22:43.325Z,17.43
2018-03-26T02:25:10.759Z,16.03
2018-03-26T02:27:38.208Z,17.23
2018-03-26T02:30:05.657Z,17.83
2018-03-26T02:32:33.877Z,18.50
2018-03-26T02:35:01.330Z,17.30
2018-03-26T02:37:28.788Z,17.00
2018-03-26T02:39:56.240Z,16.80
2018-03-26T02:42:23.688Z,17.47
2018-03-26T02:44:51.142Z,16.90
2018-03-26T02:47:18.597Z,17.50
2018-03-26T02:49:46.049Z,17.87
2018-03-26T02:52:13.505Z,17.60
2018-03-26T02:54:40.960Z,16.57
2018-03-26T02:57:08.414Z,17.23
2018-03-26T02:59:35.976Z,18.57
2018-03-26T03:02:03.426Z,17.50
2018-03-26T03:04:30.873Z,18.20
2018-03-26T03:06:58.456Z,16.27
2018-03-26T03:09:25.900Z,18.23
2018-03-26T03:11:53.349Z,17.87
2018-03-26T03:14:20.797Z,17.20
2018-03-26T03:16:49.013Z,16.87
2018-03-26T03:19:16.463Z,16.87
2018-03-26T03:21:43.966Z,18.47
2018-03-26T03:24:11.415Z,17.23
2018-03-26T03:26:38.868Z,16.87
2018-03-26T03:29:06.316Z,18.13
2018-03-26T03:31:33.776Z,17.57
2018-03-26T03:34:01.220Z,17.53
2018-03-26T03:36:28.665Z,17.87
2018-03-26T03:38:56.117Z,17.83
2018-03-26T03:41:23.569Z,18.80
2018-03-26T03:43:52.003Z,17.97
2018-03-26T03:46:20.222Z,18.30
2018-03-26T03:48:47.670Z,17.80
2018-03-26T03:51:15.144Z,17.87
2018-03-26T03:53:42.592Z,18.53
2018-03-26T03:56:10.041Z,17.47
2018-03-26T03:58:37.488Z,18.27
2018-03-26T04:01:04.938Z,18.20
2018-03-26T04:03:32.389Z,18.90
2018-03-26T04:05:59.832Z,18.83
2018-03-26T04:08:28.052Z,19.00
2018-03-26T04:10:55.502Z,18.87
2018-03-26T04:13:22.952Z,18.50
2018-03-26T04:15:50.409Z,18.23
2018-03-26T04:18:17.861Z,18.57
2018-03-26T04:20:45.303Z,19.10
2018-03-26T04:23:12.757Z,19.47
2018-03-26T04:25:40.210Z,19.13
2018-03-26T04:28:07.665Z,19.60
2018-03-26T04:30:35.116Z,19.87
2018-03-26T04:33:03.377Z,18.97
2018-03-26T04:35:30.821Z,18.60
2018-03-26T04:37:58.285Z,18.57
2018-03-26T04:40:25.728Z,19.07
2018-03-26T04:42:53.185Z,18.23
2018-03-26T04:45:20.637Z,17.90
2018-03-26T04:47:48.084Z,18.13
2018-03-26T04:50:15.540Z,19.17
2018-03-26T04:52:43.006Z,18.80
2018-03-26T04:55:10.470Z,19.70
2018-03-26T04:57:37.932Z,18.53
2018-03-26T05:00:05.383Z,19.33
2018-03-26T05:02:32.840Z,18.23
2018-03-26T05:05:00.288Z,19.20
2018-03-26T05:07:27.745Z,19.57
2018-03-26T05:09:55.212Z,18.17
2018-03-26T05:12:22.660Z,18.53
2018-03-26T05:14:50.113Z,19.87
2018-03-26T05:17:17.678Z,22.90
2018-03-26T05:19:46.831Z,18.90
2018-03-26T05:22:14.281Z,17.70
2018-03-26T05:24:41.742Z,20.43
2018-03-26T05:27:09.198Z,19.17
2018-03-26T05:29:36.657Z,18.57
2018-03-26T05:32:04.136Z,20.20
2018-03-26T05:34:31.587Z,19.63
2018-03-26T05:37:00.048Z,20.33
2018-03-26T05:39:27.502Z,19.57
2018-03-26T05:41:55.005Z,20.40
2018-03-26T05:44:22.468Z,19.73
2018-03-26T05:46:49.929Z,22.27
2018-03-26T05:49:17.376Z,22.47
2018-03-26T05:51:44.833Z,20.33
2018-03-26T05:54:12.289Z,21.30
2018-03-26T05:56:39.761Z,22.43
2018-03-26T05:59:07.211Z,20.73
2018-03-26T06:01:34.657Z,22.57
2018-03-26T06:04:02.109Z,22.20
2018-03-26T06:06:29.560Z,21.73
2018-03-26T06:08:57.012Z,20.80
2018-03-26T06:11:24.492Z,21.50
2018-03-26T06:13:51.939Z,23.00
2018-03-26T06:16:19.388Z,23.27
2018-03-26T06:18:46.832Z,22.37
2018-03-26T06:21:14.294Z,24.17
2018-03-26T06:23:41.757Z,22.77
2018-03-26T06:26:09.221Z,21.93
2018-03-26T06:28:36.673Z,21.40
2018-03-26T06:31:04.124Z,22.57
2018-03-26T06:33:31.598Z,22.43
2018-03-26T06:35:59.052Z,21.50
2018-03-26T06:38:42.172Z,24.97
2018-03-26T06:41:09.620Z,24.27
2018-03-26T06:43:37.065Z,24.77
2018-03-26T06:46:04.512Z,24.03
2018-03-26T06:48:31.966Z,24.07
2018-03-26T06:50:59.416Z,24.77
2018-03-26T06:53:26.861Z,24.93
2018-03-26T06:55:54.315Z,25.97
2018-03-26T06:58:21.756Z,27.00
2018-03-26T07:00:49.208Z,25.97
2018-03-26T07:03:17.428Z,23.17
2018-03-26T07:05:44.877Z,27.07
2018-03-26T07:08:12.334Z,26.47
2018-03-26T07:10:39.780Z,27.13
2018-03-26T07:13:07.237Z,28.83
2018-03-26T07:15:34.685Z,28.83
2018-03-26T07:18:02.142Z,29.07
2018-03-26T07:20:29.594Z,28.10
2018-03-26T07:22:57.041Z,29.23
2018-03-26T07:25:24.485Z,29.23
2018-03-26T07:27:52.707Z,26.63
2018-03-26T07:30:20.157Z,27.93
2018-03-26T07:32:47.601Z,28.70
2018-03-26T07:35:15.047Z,27.77
2018-03-26T07:37:42.496Z,27.97
2018-03-26T07:40:09.966Z,28.87
2018-03-26T07:42:37.416Z,29.40
2018-03-26T07:45:04.878Z,28.30
2018-03-26T07:47:32.321Z,27.87
2018-03-26T07:49:59.772Z,27.33
2018-03-26T07:52:27.229Z,28.20
2018-03-26T07:54:55.005Z,27.33
2018-03-26T07:57:22.464Z,25.77
2018-03-26T07:59:49.920Z,26.37
2018-03-26T08:02:17.369Z,28.60
2018-03-26T08:04:44.821Z,32.93
2018-03-26T08:07:12.277Z,33.27
2018-03-26T08:09:39.741Z,29.57
2018-03-26T08:12:07.187Z,28.97
2018-03-26T08:14:34.641Z,27.53
2018-03-26T08:17:02.110Z,28.77
2018-03-26T08:19:30.313Z,26.33
2018-03-26T08:21:57.761Z,27.43
2018-03-26T08:24:25.241Z,30.13
2018-03-26T08:26:52.664Z,31.33
2018-03-26T08:29:20.119Z,31.47
2018-03-26T08:31:47.572Z,32.60
2018-03-26T08:34:15.030Z,32.30
2018-03-26T08:36:42.485Z,31.67
2018-03-26T08:39:09.938Z,31.07
2018-03-26T08:41:37.396Z,33.87
2018-03-26T08:44:04.852Z,34.67
2018-03-26T08:46:32.313Z,32.37
2018-03-26T08:48:59.760Z,34.00
2018-03-26T08:51:27.247Z,35.20
2018-03-26T08:53:54.673Z,34.63
2018-03-26T08:56:22.173Z,34.17
2018-03-26T08:58:49.594Z,33.37
2018-03-26T09:01:17.050Z,31.53
2018-03-26T09:03:44.501Z,33.60
2018-03-26T09:06:11.961Z,33.80
2018-03-26T09:08:39.415Z,33.73
2018-03-26T09:11:06.870Z,35.00
2018-03-26T09:13:34.311Z,34.27
2018-03-26T09:16:01.764Z,35.27
2018-03-26T09:18:29.981Z,35.13
2018-03-26T09:20:57.436Z,37.77
2018-03-26T09:23:24.892Z,37.87
2018-03-26T09:25:52.341Z,35.63
2018-03-26T09:28:19.796Z,38.07
2018-03-26T09:30:47.249Z,35.90
2018-03-26T09:33:14.706Z,37.07
2018-03-26T09:35:42.157Z,36.53
2018-03-26T09:38:09.617Z,37.97
2018-03-26T09:40:37.068Z,38.90
2018-03-26T09:43:04.527Z,36.53
2018-03-26T09:45:31.981Z,37.83
2018-03-26T09:47:59.439Z,38.70
2018-03-26T09:50:26.895Z,39.77
2018-03-26T09:52:54.344Z,39.13
2018-03-26T09:55:21.793Z,37.03
2018-03-26T09:57:49.247Z,36.83
2018-03-26T10:00:17.642Z,39.13
2018-03-26T10:02:45.100Z,40.47
2018-03-26T10:05:12.554Z,37.57
2018-03-26T10:07:40.001Z,37.47
2018-03-26T10:10:07.450Z,35.83
2018-03-26T10:12:34.905Z,36.97
2018-03-26T10:15:02.373Z,36.53
2018-03-26T10:17:29.821Z,34.40
2018-03-26T10:19:57.268Z,34.33
2018-03-26T10:22:24.724Z,36.80
2018-03-26T10:24:52.944Z,33.33
2018-03-26T10:27:20.401Z,32.23
2018-03-26T10:29:47.860Z,30.87
2018-03-26T10:32:15.312Z,32.60
2018-03-26T10:34:43.544Z,32.27
2018-03-26T10:37:10.996Z,30.73
2018-03-26T10:39:39.220Z,29.03
2018-03-26T10:42:06.681Z,29.57
2018-03-26T10:44:34.132Z,32.13
2018-03-26T10:47:01.582Z,28.97
2018-03-26T10:49:29.037Z,23.63
2018-03-26T10:51:56.488Z,22.37
2018-03-26T10:54:23.936Z,18.77
2018-03-26T10:56:51.396Z,17.43
2018-03-26T10:59:18.852Z,21.53
2018-03-26T11:01:46.317Z,23.53
2018-03-26T11:04:13.775Z,19.33
2018-03-26T11:06:41.229Z,18.37
2018-03-26T11:09:08.682Z,21.47
2018-03-26T11:11:36.134Z,23.23
2018-03-26T11:14:03.593Z,22.27
2018-03-26T11:16:31.054Z,22.20
2018-03-26T11:18:58.504Z,23.53
2018-03-26T11:21:25.973Z,24.30
2018-03-26T11:23:54.194Z,24.80
2018-03-26T11:26:22.413Z,23.97
2018-03-26T11:28:49.872Z,26.60
2018-03-26T11:31:18.095Z,26.40
2018-03-26T11:33:46.321Z,24.93
2018-03-26T11:36:13.832Z,26.00
2018-03-26T11:38:41.229Z,26.23
2018-03-26T11:41:08.681Z,26.30
2018-03-26T11:43:36.137Z,24.27
2018-03-26T11:46:03.584Z,24.83
2018-03-26T11:48:31.040Z,22.50
2018-03-26T11:50:58.493Z,24.43
2018-03-26T11:53:25.948Z,24.57
2018-03-26T11:55:53.403Z,24.63
2018-03-26T11:58:20.855Z,22.67
2018-03-26T12:00:48.296Z,23.13
2018-03-26T12:03:16.515Z,23.17
2018-03-26T12:05:43.969Z,22.57
2018-03-26T12:08:11.424Z,20.87
2018-03-26T12:10:38.882Z,21.13
2018-03-26T12:13:06.329Z,19.57
2018-03-26T12:15:33.785Z,20.97
2018-03-26T12:18:01.236Z,26.47
2018-03-26T12:20:40.567Z,28.83
2018-03-26T12:23:20.008Z,26.73
2018-03-26T12:25:47.492Z,28.43
2018-03-26T12:28:26.684Z,29.27
2018-03-26T12:30:54.141Z,29.27
2018-03-26T12:33:21.592Z,29.80
2018-03-26T12:35:55.714Z,27.87
2018-03-26T12:38:23.173Z,30.63
2018-03-26T12:40:52.161Z,29.63
2018-03-26T12:43:19.620Z,30.43
2018-03-26T12:45:58.837Z,25.53
2018-03-26T12:48:27.058Z,27.43
2018-03-26T12:51:06.357Z,24.53
2018-03-26T12:53:33.801Z,26.87
2018-03-26T12:56:02.840Z,28.93
2018-03-26T12:58:42.051Z,27.37
2018-03-26T13:01:21.501Z,27.10
2018-03-26T13:03:48.953Z,27.67
2018-03-26T13:06:16.410Z,27.50
2018-03-26T13:08:43.857Z,28.10
2018-03-26T13:11:11.321Z,27.60
2018-03-26T13:13:38.768Z,27.50
2018-03-26T13:16:06.213Z,29.40
2018-03-26T13:18:33.661Z,28.70
2018-03-26T13:21:01.873Z,27.57
2018-03-26T13:23:29.326Z,26.73
2018-03-26T13:25:56.769Z,27.10
2018-03-26T13:28:24.221Z,27.73
2018-03-26T13:30:51.670Z,27.57
2018-03-26T13:33:19.121Z,26.17
2018-03-26T13:35:46.569Z,26.50
2018-03-26T13:38:14.784Z,29.73
2018-03-26T13:40:42.237Z,27.83
2018-03-26T13:43:09.697Z,28.93
2018-03-26T13:45:37.147Z,27.87
2018-03-26T13:48:04.686Z,26.73
2018-03-26T13:50:32.134Z,27.30
2018-03-26T13:52:59.609Z,25.43
2018-03-26T13:55:27.064Z,24.90
2018-03-26T13:57:54.521Z,25.83
2018-03-26T14:00:21.983Z,28.63
2018-03-26T14:02:49.467Z,25.60
2018-03-26T14:05:16.959Z,25.57
2018-03-26T14:07:45.184Z,25.77
2018-03-26T14:10:24.570Z,25.27
2018-03-26T14:13:04.752Z,25.37
2018-03-26T14:15:43.972Z,26.40
2018-03-26T14:18:11.427Z,27.10
2018-03-26T14:20:38.877Z,30.80
2018-03-26T14:23:06.343Z,29.90
2018-03-26T14:25:33.817Z,30.27
2018-03-26T14:28:01.272Z,31.40
2018-03-26T14:30:28.735Z,32.20
2018-03-26T14:32:56.189Z,32.07
2018-03-26T14:38:23.121Z,33.77
2018-03-26T14:40:50.572Z,31.53
2018-03-26T14:43:18.792Z,30.37
2018-03-26T14:45:46.236Z,30.60
2018-03-26T14:48:13.692Z,31.20
2018-03-26T14:50:41.140Z,31.17
2018-03-26T14:53:08.592Z,29.67
2018-03-26T14:55:36.041Z,31.13
2018-03-26T14:58:03.485Z,28.97
2018-03-26T15:00:31.701Z,31.83
2018-03-26T15:02:59.153Z,31.17
2018-03-26T15:05:26.606Z,32.43
2018-03-26T15:07:54.061Z,30.53
2018-03-26T15:10:21.516Z,31.63
2018-03-26T15:12:48.963Z,28.50
2018-03-26T15:15:16.420Z,31.00
2018-03-26T15:17:43.976Z,31.47
2018-03-26T15:20:11.424Z,31.13
2018-03-26T15:22:38.894Z,31.17
2018-03-26T15:25:06.344Z,32.50
2018-03-26T15:27:33.804Z,30.77
2018-03-26T15:30:01.262Z,30.47
2018-03-26T15:32:28.720Z,28.87
2018-03-26T15:34:56.168Z,28.80
2018-03-26T15:37:23.636Z,28.23
2018-03-26T15:39:51.090Z,27.13
2018-03-26T15:42:18.553Z,25.30
2018-03-26T15:44:46.001Z,26.17
2018-03-26T15:47:13.468Z,26.23
2018-03-26T15:49:40.980Z,26.67
2018-03-26T15:52:09.209Z,27.37
2018-03-26T15:54:36.664Z,27.47
2018-03-26T15:57:04.129Z,26.53
2018-03-26T15:59:31.585Z,28.50
2018-03-26T16:01:59.322Z,27.67
2018-03-26T16:04:26.784Z,28.97
2018-03-26T16:06:54.248Z,28.20
2018-03-26T16:09:21.701Z,29.03
2018-03-26T16:11:49.162Z,28.17
2018-03-26T16:14:16.612Z,29.17
2018-03-26T16:16:44.072Z,29.67
2018-03-26T16:19:11.529Z,28.77
2018-03-26T16:21:38.990Z,30.93
2018-03-26T16:24:06.444Z,28.97
2018-03-26T16:26:33.914Z,29.10
2018-03-26T16:29:01.364Z,29.77
2018-03-26T16:31:28.841Z,29.13
2018-03-26T16:33:57.807Z,30.97
2018-03-26T16:36:25.281Z,30.60
2018-03-26T16:38:52.743Z,31.00
2018-03-26T16:41:31.952Z,30.63
2018-03-26T16:44:00.182Z,29.63
2018-03-26T16:46:28.400Z,28.63
2018-03-26T16:48:55.867Z,30.60
2018-03-26T16:51:23.316Z,30.07
2018-03-26T16:53:51.219Z,29.60
2018-03-26T16:56:18.682Z,30.50
2018-03-26T16:58:46.905Z,31.37
2018-03-26T17:01:14.369Z,30.07
2018-03-26T17:03:41.860Z,31.03
2018-03-26T17:06:09.434Z,31.17
2018-03-26T17:08:37.651Z,28.57
2018-03-26T17:11:05.133Z,29.73
2018-03-26T17:13:32.622Z,32.73
2018-03-26T17:16:00.845Z,35.13
2018-03-26T17:18:28.308Z,33.80
2018-03-26T17:20:55.799Z,35.10
2018-03-26T17:23:23.250Z,39.00
2018-03-26T17:25:50.704Z,38.57
2018-03-26T17:28:18.168Z,41.57
2018-03-26T17:30:46.402Z,40.17
2018-03-26T17:33:13.860Z,39.33
2018-03-26T17:35:41.328Z,36.73
2018-03-26T17:38:08.795Z,31.10
2018-03-26T17:40:36.259Z,29.37
2018-03-26T17:43:03.717Z,28.30
2018-03-26T17:45:31.203Z,30.07
2018-03-26T17:47:59.436Z,29.20
2018-03-26T17:50:26.944Z,28.97
2018-03-26T17:52:54.369Z,30.77
2018-03-26T17:55:21.824Z,32.27
2018-03-26T17:57:49.312Z,31.77
2018-03-26T18:00:16.806Z,32.20
2018-03-26T18:02:44.315Z,33.10
2018-03-26T18:05:12.549Z,32.47
2018-03-26T18:07:40.021Z,30.50
2018-03-26T18:10:07.581Z,31.87
2018-03-26T18:12:34.992Z,31.43
2018-03-26T18:15:02.477Z,32.50
2018-03-26T18:17:30.099Z,32.20
2018-03-26T18:19:57.605Z,34.93
2018-03-26T18:22:25.094Z,33.47
2018-03-26T18:24:53.355Z,33.23
2018-03-26T18:27:20.884Z,33.90
2018-03-26T18:29:48.353Z,33.27
2018-03-26T18:32:15.954Z,33.43
2018-03-26T18:34:43.485Z,32.90
2018-03-26T18:37:11.736Z,34.70
2018-03-26T18:39:39.958Z,33.97
2018-03-26T18:42:07.519Z,33.97
2018-03-26T18:44:34.983Z,32.50
2018-03-26T18:47:02.450Z,30.83
2018-03-26T18:49:29.905Z,33.20
2018-03-26T18:51:57.370Z,32.63
2018-03-26T18:54:24.833Z,32.17
2018-03-26T18:56:52.370Z,32.43
2018-03-26T18:59:19.800Z,32.07
2018-03-26T19:01:48.025Z,30.17
2018-03-26T19:04:16.185Z,32.37
2018-03-26T19:06:43.629Z,31.30
2018-03-26T19:09:11.084Z,31.43
2018-03-26T19:11:38.546Z,31.27
2018-03-26T19:14:06.002Z,31.13
2018-03-26T19:16:33.459Z,31.50
2018-03-26T19:19:00.918Z,31.47
2018-03-26T19:21:28.392Z,31.53
2018-03-26T19:23:55.869Z,31.83
2018-03-26T19:26:23.327Z,34.20
2018-03-26T19:28:50.801Z,35.50
2018-03-26T19:31:18.260Z,33.30
2018-03-26T19:33:46.486Z,34.97
2018-03-26T19:36:13.944Z,34.30
2018-03-26T19:38:41.412Z,34.03
2018-03-26T19:41:08.870Z,34.17
2018-03-26T19:43:36.349Z,33.60
2018-03-26T19:46:03.809Z,32.53
2018-03-26T19:48:31.264Z,32.33
2018-03-26T19:50:58.720Z,33.17
2018-03-26T19:53:26.172Z,31.17
2018-03-26T19:55:53.626Z,29.97
2018-03-26T19:58:21.140Z,32.33
2018-03-26T20:00:49.314Z,33.57
2018-03-26T20:03:16.773Z,35.43
2018-03-26T20:05:44.233Z,42.43
2018-03-26T20:08:11.698Z,44.53
2018-03-26T20:10:39.152Z,38.23
2018-03-26T20:13:06.612Z,33.57
2018-03-26T20:15:34.069Z,31.27
2018-03-26T20:18:01.528Z,31.57
2018-03-26T20:20:28.983Z,30.60
2018-03-26T20:22:56.443Z,31.37
2018-03-26T20:25:23.910Z,32.57
2018-03-26T20:27:51.362Z,33.80
2018-03-26T20:30:18.829Z,33.50
2018-03-26T20:32:46.275Z,34.50
2018-03-26T20:35:13.738Z,33.33
2018-03-26T20:37:41.191Z,34.40
2018-03-26T20:40:09.424Z,34.27
2018-03-26T20:42:36.876Z,34.40
2018-03-26T20:45:04.380Z,36.53
2018-03-26T20:47:31.785Z,36.33
2018-03-26T20:49:59.237Z,38.00
2018-03-26T20:52:26.687Z,37.47
2018-03-26T20:54:54.912Z,38.50
2018-03-26T20:57:22.366Z,38.83
2018-03-26T20:59:49.816Z,35.97
2018-03-26T21:02:17.268Z,35.77
2018-03-26T21:04:44.715Z,34.83
2018-03-26T21:07:12.178Z,34.93
2018-03-26T21:09:39.628Z,34.67
2018-03-26T21:12:07.231Z,35.53
2018-03-26T21:14:35.473Z,36.30
2018-03-26T21:17:02.936Z,37.10
2018-03-26T21:19:30.394Z,38.23
2018-03-26T21:21:57.915Z,35.43
2018-03-26T21:24:25.361Z,35.57
2018-03-26T21:26:53.581Z,36.13
2018-03-26T21:29:21.033Z,37.23
2018-03-26T21:31:48.485Z,36.70
2018-03-26T21:34:15.937Z,37.63
2018-03-26T21:36:43.380Z,38.87
2018-03-26T21:39:10.837Z,37.57
2018-03-26T21:41:38.288Z,36.63
2018-03-26T21:44:05.737Z,37.77
2018-03-26T21:46:33.204Z,37.57
2018-03-26T21:49:00.662Z,37.60
2018-03-26T21:51:28.105Z,37.50
2018-03-26T21:53:55.569Z,37.40
2018-03-26T21:56:23.022Z,37.03
2018-03-26T21:58:50.476Z,37.63
2018-03-26T22:01:17.925Z,37.57
2018-03-26T22:03:46.144Z,35.13
2018-03-26T22:06:13.596Z,36.40
2018-03-26T22:08:41.061Z,37.33
2018-03-26T22:11:08.504Z,37.53
2018-03-26T22:13:35.969Z,38.47
2018-03-26T22:16:03.421Z,36.90
2018-03-26T22:18:30.884Z,39.20
2018-03-26T22:20:58.374Z,37.57
2018-03-26T22:23:25.824Z,37.87
2018-03-26T22:25:53.272Z,38.70
2018-03-26T22:28:20.727Z,38.50
2018-03-26T22:30:48.172Z,38.70
2018-03-26T22:33:15.627Z,36.03
2018-03-26T22:35:43.077Z,36.97
2018-03-26T22:38:10.541Z,37.47
2018-03-26T22:40:37.992Z,37.90
2018-03-26T22:43:05.461Z,38.73
2018-03-26T22:45:32.917Z,36.90
2018-03-26T22:48:00.372Z,40.07
2018-03-26T22:50:27.824Z,38.20
2018-03-26T22:52:55.277Z,36.93
2018-03-26T22:55:22.724Z,41.03
2018-03-26T22:57:50.180Z,41.23
2018-03-26T23:00:17.640Z,39.87
2018-03-26T23:02:45.092Z,40.23
2018-03-26T23:05:12.545Z,40.33
2018-03-26T23:07:40.003Z,40.47
2018-03-26T23:10:07.464Z,39.77
2018-03-26T23:12:34.921Z,40.57
2018-03-26T23:15:02.369Z,40.40
2018-03-26T23:17:29.820Z,42.40
2018-03-26T23:19:57.269Z,41.07
2018-03-26T23:22:36.644Z,43.10
2018-03-26T23:25:04.096Z,42.10
2018-03-26T23:27:31.549Z,39.37
2018-03-26T23:29:59.004Z,39.97
2018-03-26T23:32:26.453Z,41.73
2018-03-26T23:34:53.904Z,40.13
2018-03-26T23:37:21.362Z,41.33
2018-03-26T23:39:48.816Z,42.80
2018-03-26T23:42:16.258Z,41.50
2018-03-26T23:44:43.704Z,38.90
2018-03-26T23:47:11.152Z,39.73
2018-03-26T23:49:38.610Z,39.27
2018-03-26T23:52:06.051Z,40.17
2018-03-26T23:54:34.273Z,38.93
2018-03-26T23:57:02.500Z,40.40
2018-03-26T23:59:30.727Z,39.43
